Time;durP1;ratioP1;P1;durP2;ratioP2;P2;SDS_P1;SDS_P2;PMS_P1;PMS_P2;Temp;Humidity;BMP_temperature;BMP_pressure;BME280_temperature;BME280_humidity;BME280_pressure;Samples;Min_cycle;Max_cycle;Signal;HPM_P1;HPM_P2
2023/05/27 00:02:13;;;;;;;8.32;3.28;;;;;;;;;;5033144;28;20200;-64
2023/05/27 00:04:40;;;;;;;9.40;3.55;;;;;;;;;;5033139;28;20219;-65
2023/05/27 00:07:07;;;;;;;6.85;2.63;;;;;;;;;;5032050;28;20204;-65
2023/05/27 00:09:35;;;;;;;8.70;3.00;;;;;;;;;;5033184;28;20203;-66
2023/05/27 00:12:02;;;;;;;7.70;3.00;;;;;;;;;;5032756;28;20220;-65
2023/05/27 00:14:30;;;;;;;9.70;3.38;;;;;;;;;;5032088;28;20227;-65
2023/05/27 00:16:59;;;;;;;6.70;2.78;;;;;;;;;;5032909;28;20270;-66
2023/05/27 00:19:26;;;;;;;9.88;2.92;;;;;;;;;;5031235;28;20208;-66
2023/05/27 00:21:53;;;;;;;7.20;3.05;;;;;;;;;;5032645;28;20458;-65
2023/05/27 00:24:21;;;;;;;8.00;2.90;;;;;;;;;;5030535;28;20196;-66
2023/05/27 00:26:48;;;;;;;6.07;2.72;;;;;;;;;;5032702;28;20212;-66
2023/05/27 00:29:18;;;;;;;8.02;3.00;;;;;;;;;;5032073;28;20266;-68
2023/05/27 00:31:47;;;;;;;8.63;3.33;;;;;;;;;;5033067;28;20228;-66
2023/05/27 00:34:14;;;;;;;7.20;3.13;;;;;;;;;;5033064;28;20211;-66
2023/05/27 00:36:41;;;;;;;6.55;2.85;;;;;;;;;;5032412;28;20216;-65
2023/05/27 00:39:08;;;;;;;8.68;3.10;;;;;;;;;;5032812;28;20200;-66
2023/05/27 00:41:35;;;;;;;6.70;3.10;;;;;;;;;;5032451;28;20207;-66
2023/05/27 00:44:03;;;;;;;7.75;3.25;;;;;;;;;;5032670;28;20218;-66
2023/05/27 00:46:30;;;;;;;8.23;3.13;;;;;;;;;;5034547;28;20231;-65
2023/05/27 00:48:58;;;;;;;7.05;2.70;;;;;;;;;;5032312;28;20286;-65
2023/05/27 00:51:26;;;;;;;7.93;2.70;;;;;;;;;;5032221;28;20238;-65
2023/05/27 00:53:53;;;;;;;6.78;2.70;;;;;;;;;;5031595;28;20196;-65
2023/05/27 00:56:20;;;;;;;9.80;3.28;;;;;;;;;;5032472;28;20199;-65
2023/05/27 00:58:47;;;;;;;8.95;2.83;;;;;;;;;;5032296;28;20346;-65
2023/05/27 01:01:14;;;;;;;7.07;2.60;;;;;;;;;;5031965;28;20204;-65
2023/05/27 01:03:41;;;;;;;6.45;2.80;;;;;;;;;;5032157;28;20204;-65
2023/05/27 01:06:15;;;;;;;7.32;3.17;;;;;;;;;;5032078;28;20196;-65
2023/05/27 01:08:48;;;;;;;7.85;3.13;;;;;;;;;;5030637;28;20208;-65
2023/05/27 01:11:18;;;;;;;11.70;3.40;;;;;;;;;;5030694;28;20215;-66
2023/05/27 01:13:48;;;;;;;7.95;3.08;;;;;;;;;;5031704;28;20211;-67
2023/05/27 01:16:17;;;;;;;7.72;2.85;;;;;;;;;;5030776;28;20240;-68
2023/05/27 01:18:46;;;;;;;6.75;2.90;;;;;;;;;;5031563;28;20204;-68
2023/05/27 01:21:17;;;;;;;6.65;2.60;;;;;;;;;;5030840;28;20232;-68
2023/05/27 01:23:48;;;;;;;6.53;2.70;;;;;;;;;;5029787;28;20261;-68
2023/05/27 01:26:15;;;;;;;6.25;2.58;;;;;;;;;;5031076;28;20207;-67
2023/05/27 01:28:43;;;;;;;8.55;3.20;;;;;;;;;;5031541;28;20204;-68
2023/05/27 01:31:13;;;;;;;9.10;3.25;;;;;;;;;;5031299;28;20204;-68
2023/05/27 01:33:44;;;;;;;7.45;2.92;;;;;;;;;;5031306;28;20199;-67
2023/05/27 01:36:13;;;;;;;6.25;2.90;;;;;;;;;;5031467;28;20254;-67
2023/05/27 01:38:42;;;;;;;7.93;2.90;;;;;;;;;;5030935;28;20212;-66
2023/05/27 01:41:10;;;;;;;7.03;3.00;;;;;;;;;;5030360;28;20211;-65
2023/05/27 01:43:38;;;;;;;7.22;2.97;;;;;;;;;;5031373;28;20200;-65
2023/05/27 01:46:05;;;;;;;7.18;2.90;;;;;;;;;;5029510;28;20204;-68
2023/05/27 01:48:32;;;;;;;5.50;2.65;;;;;;;;;;5029715;28;20204;-67
2023/05/27 01:50:59;;;;;;;9.55;3.50;;;;;;;;;;5028179;28;20208;-67
2023/05/27 01:53:26;;;;;;;7.40;2.88;;;;;;;;;;5031321;28;20212;-67
2023/05/27 01:55:53;;;;;;;6.90;2.70;;;;;;;;;;5032818;28;20208;-67
2023/05/27 01:58:22;;;;;;;7.33;2.83;;;;;;;;;;5030259;28;20211;-67
2023/05/27 02:00:49;;;;;;;7.07;3.10;;;;;;;;;;5030738;28;20212;-68
2023/05/27 02:03:16;;;;;;;6.55;2.60;;;;;;;;;;5030933;28;20208;-67
2023/05/27 02:05:44;;;;;;;9.50;3.00;;;;;;;;;;5030087;28;20222;-67
2023/05/27 02:08:11;;;;;;;7.32;2.95;;;;;;;;;;5030366;28;20208;-68
2023/05/27 02:10:39;;;;;;;9.00;3.05;;;;;;;;;;5030940;28;20254;-67
2023/05/27 02:13:06;;;;;;;8.20;2.88;;;;;;;;;;5031614;28;20255;-67
2023/05/27 02:15:34;;;;;;;6.68;2.88;;;;;;;;;;5029726;28;20220;-67
2023/05/27 02:18:01;;;;;;;7.50;2.63;;;;;;;;;;5030817;28;20278;-67
2023/05/27 02:20:29;;;;;;;7.38;3.30;;;;;;;;;;5030941;28;20212;-67
2023/05/27 02:22:56;;;;;;;8.53;2.83;;;;;;;;;;5029968;28;20235;-69
2023/05/27 02:25:23;;;;;;;7.53;2.57;;;;;;;;;;5031031;28;20204;-67
2023/05/27 02:27:52;;;;;;;10.18;3.35;;;;;;;;;;5030517;28;20208;-68
2023/05/27 02:30:19;;;;;;;8.98;2.72;;;;;;;;;;5031009;28;20208;-68
2023/05/27 02:32:47;;;;;;;7.25;2.88;;;;;;;;;;5030883;28;20239;-68
2023/05/27 02:35:15;;;;;;;8.70;2.88;;;;;;;;;;5025934;28;20227;-68
2023/05/27 02:37:42;;;;;;;8.30;3.00;;;;;;;;;;5030219;28;20204;-68
2023/05/27 02:40:10;;;;;;;7.77;3.00;;;;;;;;;;5030816;28;20203;-68
2023/05/27 02:42:37;;;;;;;5.72;2.70;;;;;;;;;;5030399;28;20211;-68
2023/05/27 02:45:05;;;;;;;9.33;3.00;;;;;;;;;;5030689;28;20204;-68
2023/05/27 02:47:32;;;;;;;7.82;3.28;;;;;;;;;;5031249;28;20201;-68
2023/05/27 02:50:01;;;;;;;7.18;2.97;;;;;;;;;;5031021;28;20204;-67
2023/05/27 02:52:28;;;;;;;10.13;2.90;;;;;;;;;;5029433;28;20224;-68
2023/05/27 02:54:55;;;;;;;9.02;3.33;;;;;;;;;;5030301;28;20201;-68
2023/05/27 02:57:22;;;;;;;12.32;3.78;;;;;;;;;;5029713;28;20215;-68
2023/05/27 02:59:49;;;;;;;7.63;2.65;;;;;;;;;;5032560;28;20215;-68
2023/05/27 03:02:16;;;;;;;8.07;3.10;;;;;;;;;;5034559;28;20200;-69
2023/05/27 03:04:43;;;;;;;6.35;2.45;;;;;;;;;;5032707;28;20204;-69
2023/05/27 03:07:12;;;;;;;7.57;3.00;;;;;;;;;;5034065;28;20222;-69
2023/05/27 03:09:39;;;;;;;7.32;3.10;;;;;;;;;;5033167;28;20204;-69
2023/05/27 03:12:06;;;;;;;7.57;3.10;;;;;;;;;;5032868;28;20220;-69
2023/05/27 03:14:33;;;;;;;7.50;3.20;;;;;;;;;;5033718;28;20208;-70
2023/05/27 03:17:01;;;;;;;8.68;2.90;;;;;;;;;;5033505;28;20291;-70
2023/05/27 03:19:28;;;;;;;7.27;2.93;;;;;;;;;;5035529;28;20212;-69
2023/05/27 03:21:55;;;;;;;5.80;2.47;;;;;;;;;;5031075;28;20224;-69
2023/05/27 03:24:24;;;;;;;11.32;3.15;;;;;;;;;;5034184;28;20231;-69
2023/05/27 03:26:52;;;;;;;10.67;2.93;;;;;;;;;;5031339;28;20204;-69
2023/05/27 03:29:19;;;;;;;7.55;3.03;;;;;;;;;;5033527;28;20229;-70
2023/05/27 03:31:46;;;;;;;6.50;2.80;;;;;;;;;;5033090;28;20246;-70
2023/05/27 03:34:13;;;;;;;8.50;2.80;;;;;;;;;;5033875;28;20216;-70
2023/05/27 03:36:42;;;;;;;6.67;2.93;;;;;;;;;;5034153;28;20203;-69
2023/05/27 03:39:09;;;;;;;6.77;2.77;;;;;;;;;;5031844;28;20217;-69
2023/05/27 03:41:38;;;;;;;7.38;2.90;;;;;;;;;;5033396;28;20200;-69
2023/05/27 03:44:05;;;;;;;10.95;3.10;;;;;;;;;;5033609;28;20212;-69
2023/05/27 03:46:32;;;;;;;8.27;3.10;;;;;;;;;;5033038;28;20205;-69
2023/05/27 03:48:59;;;;;;;8.90;3.30;;;;;;;;;;5033292;28;20212;-70
2023/05/27 03:51:26;;;;;;;9.93;3.30;;;;;;;;;;5033619;28;20212;-70
2023/05/27 03:53:53;;;;;;;10.70;3.30;;;;;;;;;;5032117;28;20224;-70
2023/05/27 03:56:21;;;;;;;6.07;3.00;;;;;;;;;;5033493;28;20212;-70
2023/05/27 03:58:49;;;;;;;7.82;3.13;;;;;;;;;;5033050;28;20208;-70
2023/05/27 04:01:16;;;;;;;8.03;3.03;;;;;;;;;;5032675;28;20200;-70
2023/05/27 04:03:44;;;;;;;5.95;2.97;;;;;;;;;;5033195;28;20228;-70
2023/05/27 04:06:11;;;;;;;8.17;2.93;;;;;;;;;;5032547;28;20208;-70
2023/05/27 04:08:39;;;;;;;8.20;2.70;;;;;;;;;;5032228;28;20207;-70
2023/05/27 04:11:06;;;;;;;8.60;3.40;;;;;;;;;;5029774;28;20215;-71
2023/05/27 04:13:33;;;;;;;6.03;3.10;;;;;;;;;;5031560;28;20223;-70
2023/05/27 04:16:01;;;;;;;7.17;2.97;;;;;;;;;;5032750;28;20200;-70
2023/05/27 04:18:29;;;;;;;9.00;3.13;;;;;;;;;;5031896;28;20204;-71
2023/05/27 04:20:58;;;;;;;6.77;2.87;;;;;;;;;;5030029;28;20232;-70
2023/05/27 04:23:25;;;;;;;7.03;3.03;;;;;;;;;;5031591;28;20239;-70
2023/05/27 04:25:52;;;;;;;8.80;2.63;;;;;;;;;;5031063;28;20215;-70
2023/05/27 04:28:20;;;;;;;8.13;3.27;;;;;;;;;;5032520;28;20216;-70
2023/05/27 04:30:48;;;;;;;8.60;3.03;;;;;;;;;;5031172;28;20208;-70
2023/05/27 04:33:18;;;;;;;8.17;2.90;;;;;;;;;;5031688;28;21165;-69
2023/05/27 04:35:47;;;;;;;8.63;3.10;;;;;;;;;;5032001;28;20200;-69
2023/05/27 04:38:16;;;;;;;6.63;3.00;;;;;;;;;;5032212;28;20335;-70
2023/05/27 04:40:44;;;;;;;7.80;2.80;;;;;;;;;;5031457;28;20254;-70
2023/05/27 04:43:14;;;;;;;6.53;2.93;;;;;;;;;;5030235;28;20204;-70
2023/05/27 04:45:41;;;;;;;8.47;3.03;;;;;;;;;;5031638;28;20304;-70
2023/05/27 04:48:08;;;;;;;6.00;2.75;;;;;;;;;;5030772;28;20208;-70
2023/05/27 04:50:37;;;;;;;9.00;3.17;;;;;;;;;;5031744;28;20212;-69
2023/05/27 04:53:04;;;;;;;9.27;2.90;;;;;;;;;;5031637;28;20219;-69
2023/05/27 04:55:32;;;;;;;8.87;3.00;;;;;;;;;;5031397;28;20203;-69
2023/05/27 04:58:02;;;;;;;10.50;3.53;;;;;;;;;;5029838;28;20211;-69
2023/05/27 05:00:49;;;;;;;7.97;3.00;;;;;;;;;;5028609;28;20223;-69
2023/05/27 05:03:20;;;;;;;11.90;3.30;;;;;;;;;;5031821;28;20200;-69
2023/05/27 05:05:49;;;;;;;8.87;3.27;;;;;;;;;;5029140;28;20208;-69
2023/05/27 05:08:16;;;;;;;8.18;3.22;;;;;;;;;;5028601;28;20196;-69
2023/05/27 05:10:43;;;;;;;8.90;3.40;;;;;;;;;;5030203;28;20219;-68
2023/05/27 05:13:10;;;;;;;8.50;2.85;;;;;;;;;;5030531;28;20235;-68
2023/05/27 05:15:37;;;;;;;9.27;3.37;;;;;;;;;;5029498;28;20208;-68
2023/05/27 05:18:04;;;;;;;8.85;3.25;;;;;;;;;;5031060;28;20208;-68
2023/05/27 05:20:31;;;;;;;9.13;3.30;;;;;;;;;;5031677;28;20242;-68
2023/05/27 05:23:00;;;;;;;9.88;3.13;;;;;;;;;;5027492;28;20242;-67
2023/05/27 05:25:27;;;;;;;8.80;2.97;;;;;;;;;;5030414;28;20204;-67
2023/05/27 05:27:55;;;;;;;9.35;3.22;;;;;;;;;;5030180;28;20208;-66
2023/05/27 05:30:22;;;;;;;7.07;2.88;;;;;;;;;;5030534;28;20214;-65
2023/05/27 05:32:49;;;;;;;9.35;2.80;;;;;;;;;;5025513;28;20200;-65
2023/05/27 05:35:16;;;;;;;9.27;2.90;;;;;;;;;;5029954;28;20212;-65
2023/05/27 05:37:43;;;;;;;9.23;3.20;;;;;;;;;;5029924;28;20204;-64
2023/05/27 05:40:24;;;;;;;8.23;2.90;;;;;;;;;;5029809;28;20204;-65
2023/05/27 05:42:51;;;;;;;5.38;2.70;;;;;;;;;;5029896;28;20283;-65
2023/05/27 05:45:19;;;;;;;7.35;2.85;;;;;;;;;;5030975;28;20210;-65
2023/05/27 05:47:46;;;;;;;8.07;3.22;;;;;;;;;;5029598;28;20200;-65
2023/05/27 05:50:13;;;;;;;6.13;2.83;;;;;;;;;;5030044;28;20227;-66
2023/05/27 05:52:40;;;;;;;8.25;3.13;;;;;;;;;;5027391;28;20200;-64
2023/05/27 05:55:07;;;;;;;8.32;3.45;;;;;;;;;;5025911;28;20212;-65
2023/05/27 05:57:36;;;;;;;8.13;3.10;;;;;;;;;;5028856;28;20208;-64
2023/05/27 06:00:03;;;;;;;6.90;3.10;;;;;;;;;;5030584;28;20207;-65
2023/05/27 06:02:30;;;;;;;10.40;3.38;;;;;;;;;;5029849;28;20208;-64
2023/05/27 06:04:57;;;;;;;6.70;3.22;;;;;;;;;;5027840;28;20207;-64
2023/05/27 06:07:24;;;;;;;8.48;3.00;;;;;;;;;;5026765;28;20215;-64
2023/05/27 06:09:51;;;;;;;8.10;3.15;;;;;;;;;;5029451;28;20203;-64
2023/05/27 06:12:19;;;;;;;7.65;2.85;;;;;;;;;;5027994;28;20208;-65
2023/05/27 06:14:47;;;;;;;8.98;3.20;;;;;;;;;;5022565;28;20228;-66
2023/05/27 06:17:15;;;;;;;7.38;3.15;;;;;;;;;;5028904;28;20200;-66
2023/05/27 06:19:42;;;;;;;8.02;3.03;;;;;;;;;;5028653;28;20204;-65
2023/05/27 06:22:09;;;;;;;7.53;2.72;;;;;;;;;;5028665;28;20243;-63
2023/05/27 06:24:36;;;;;;;8.07;2.83;;;;;;;;;;5029481;28;20204;-63
2023/05/27 06:27:03;;;;;;;7.28;3.10;;;;;;;;;;5028966;28;20212;-63
2023/05/27 06:29:30;;;;;;;7.78;2.60;;;;;;;;;;5027841;28;20200;-63
2023/05/27 06:31:59;;;;;;;5.35;2.72;;;;;;;;;;5027557;28;20200;-63
2023/05/27 06:34:26;;;;;;;10.25;3.40;;;;;;;;;;5032952;28;20224;-63
2023/05/27 06:36:53;;;;;;;8.30;3.42;;;;;;;;;;5034339;28;20200;-63
2023/05/27 06:39:20;;;;;;;6.88;2.80;;;;;;;;;;5033576;28;20204;-64
2023/05/27 06:41:47;;;;;;;7.25;2.92;;;;;;;;;;5030788;28;20208;-64
2023/05/27 06:44:14;;;;;;;7.07;3.03;;;;;;;;;;5029292;28;20203;-63
2023/05/27 06:46:41;;;;;;;6.15;3.17;;;;;;;;;;5031884;28;20215;-64
2023/05/27 06:49:10;;;;;;;6.68;3.05;;;;;;;;;;5031811;28;20209;-63
2023/05/27 06:51:37;;;;;;;9.05;3.33;;;;;;;;;;5029028;28;20200;-63
2023/05/27 06:54:04;;;;;;;8.13;2.92;;;;;;;;;;5033578;28;20266;-66
2023/05/27 06:56:31;;;;;;;9.73;3.15;;;;;;;;;;5031594;28;20278;-64
2023/05/27 06:58:58;;;;;;;9.07;3.40;;;;;;;;;;5032931;28;20280;-65
2023/05/27 07:01:26;;;;;;;8.02;2.78;;;;;;;;;;5023881;28;20205;-64
2023/05/27 07:03:53;;;;;;;8.38;3.15;;;;;;;;;;5033770;28;20204;-63
2023/05/27 07:06:22;;;;;;;8.13;3.17;;;;;;;;;;5032533;28;20204;-65
2023/05/27 07:08:49;;;;;;;7.05;2.75;;;;;;;;;;5031019;28;20215;-63
2023/05/27 07:11:16;;;;;;;8.50;3.33;;;;;;;;;;5032943;28;20266;-63
2023/05/27 07:13:43;;;;;;;9.40;3.10;;;;;;;;;;5032165;28;20223;-63
2023/05/27 07:16:10;;;;;;;7.00;2.70;;;;;;;;;;5031697;28;20207;-63
2023/05/27 07:18:37;;;;;;;6.28;2.70;;;;;;;;;;5034300;28;20211;-63
2023/05/27 07:21:04;;;;;;;6.85;2.83;;;;;;;;;;5030316;28;20228;-63
2023/05/27 07:23:33;;;;;;;7.53;3.05;;;;;;;;;;5029968;28;20299;-65
2023/05/27 07:26:00;;;;;;;6.70;2.95;;;;;;;;;;5032736;28;20212;-65
2023/05/27 07:28:27;;;;;;;8.05;3.17;;;;;;;;;;5033338;28;20227;-64
2023/05/27 07:30:54;;;;;;;10.00;2.88;;;;;;;;;;5033728;28;20207;-64
2023/05/27 07:33:22;;;;;;;9.77;3.42;;;;;;;;;;5029639;28;20204;-64
2023/05/27 07:35:49;;;;;;;8.02;3.38;;;;;;;;;;5032910;28;20204;-64
2023/05/27 07:38:16;;;;;;;7.35;2.95;;;;;;;;;;5032609;28;20196;-63
2023/05/27 07:40:45;;;;;;;7.07;2.90;;;;;;;;;;5032395;28;20218;-64
2023/05/27 07:43:12;;;;;;;6.18;3.22;;;;;;;;;;5032753;28;20246;-63
2023/05/27 07:45:39;;;;;;;7.95;3.13;;;;;;;;;;5031294;28;20215;-64
2023/05/27 07:48:06;;;;;;;6.75;3.00;;;;;;;;;;5029305;28;20256;-64
2023/05/27 07:50:33;;;;;;;6.18;3.22;;;;;;;;;;5031706;28;20197;-64
2023/05/27 07:53:01;;;;;;;9.55;3.30;;;;;;;;;;5032150;28;20204;-63
2023/05/27 07:55:28;;;;;;;9.15;3.72;;;;;;;;;;5029205;28;20322;-64
2023/05/27 07:57:56;;;;;;;7.35;3.17;;;;;;;;;;5031150;28;20197;-64
2023/05/27 08:00:23;;;;;;;8.07;3.28;;;;;;;;;;5028233;28;20196;-64
2023/05/27 08:02:50;;;;;;;8.50;3.40;;;;;;;;;;5030569;28;20215;-64
2023/05/27 08:05:17;;;;;;;8.85;3.10;;;;;;;;;;5028749;28;20193;-64
2023/05/27 08:07:45;;;;;;;7.80;3.28;;;;;;;;;;5031425;28;20207;-63
2023/05/27 08:10:12;;;;;;;8.30;3.40;;;;;;;;;;5033397;28;20226;-64
2023/05/27 08:12:39;;;;;;;8.55;2.75;;;;;;;;;;5034201;28;20196;-65
2023/05/27 08:15:09;;;;;;;8.40;3.03;;;;;;;;;;5020748;28;20224;-65
2023/05/27 08:17:36;;;;;;;9.05;3.22;;;;;;;;;;5032166;28;20215;-64
2023/05/27 08:20:05;;;;;;;7.35;2.83;;;;;;;;;;5030086;28;20227;-64
2023/05/27 08:22:32;;;;;;;6.95;2.78;;;;;;;;;;5033338;28;20247;-66
2023/05/27 08:25:00;;;;;;;10.63;3.30;;;;;;;;;;5030151;28;20204;-65
2023/05/27 08:27:42;;;;;;;5.03;2.60;;;;;;;;;;5033575;28;20200;-64
2023/05/27 08:30:11;;;;;;;9.32;3.40;;;;;;;;;;5030073;28;20196;-63
2023/05/27 08:32:38;;;;;;;6.95;3.10;;;;;;;;;;5025273;28;20204;-65
2023/05/27 08:35:06;;;;;;;8.27;2.97;;;;;;;;;;5029299;28;20208;-65
2023/05/27 08:37:33;;;;;;;7.38;3.25;;;;;;;;;;5032350;28;20208;-64
2023/05/27 08:40:00;;;;;;;7.97;3.25;;;;;;;;;;5032826;28;20212;-64
2023/05/27 08:42:28;;;;;;;8.77;3.05;;;;;;;;;;5032270;28;20211;-64
2023/05/27 08:44:55;;;;;;;6.82;3.05;;;;;;;;;;5031765;28;20196;-64
2023/05/27 08:47:24;;;;;;;7.50;3.25;;;;;;;;;;5032296;28;20254;-64
2023/05/27 08:49:51;;;;;;;8.00;3.15;;;;;;;;;;5031302;28;20259;-64
2023/05/27 08:52:20;;;;;;;7.00;2.75;;;;;;;;;;5031758;28;20223;-64
2023/05/27 08:54:48;;;;;;;6.03;2.88;;;;;;;;;;5031221;28;20220;-65
2023/05/27 08:57:17;;;;;;;6.60;2.80;;;;;;;;;;5031361;28;20207;-64
2023/05/27 08:59:44;;;;;;;7.38;3.03;;;;;;;;;;5029533;28;20205;-64
2023/05/27 09:02:12;;;;;;;6.47;3.35;;;;;;;;;;5029458;28;20204;-64
2023/05/27 09:04:41;;;;;;;6.22;3.00;;;;;;;;;;5027012;28;20204;-64
2023/05/27 09:07:09;;;;;;;5.28;2.47;;;;;;;;;;5028771;28;20204;-64
2023/05/27 09:09:36;;;;;;;6.53;2.97;;;;;;;;;;5027810;28;20211;-64
2023/05/27 09:12:03;;;;;;;7.57;2.97;;;;;;;;;;5029878;28;20201;-64
2023/05/27 09:14:30;;;;;;;7.30;2.72;;;;;;;;;;5026609;28;20228;-64
2023/05/27 09:16:57;;;;;;;6.15;3.08;;;;;;;;;;5032509;28;20219;-64
2023/05/27 09:19:25;;;;;;;7.63;3.05;;;;;;;;;;5026632;28;20197;-64
2023/05/27 09:21:54;;;;;;;7.38;3.42;;;;;;;;;;5030215;28;20231;-65
2023/05/27 09:24:23;;;;;;;7.60;2.90;;;;;;;;;;5028068;28;20203;-66
2023/05/27 09:26:52;;;;;;;8.40;3.10;;;;;;;;;;5026537;28;20254;-66
2023/05/27 09:29:19;;;;;;;7.57;3.20;;;;;;;;;;5028609;28;20204;-66
2023/05/27 09:31:47;;;;;;;6.80;3.17;;;;;;;;;;5027833;28;20218;-63
2023/05/27 09:34:15;;;;;;;5.90;3.08;;;;;;;;;;5030006;28;20228;-64
2023/05/27 09:36:45;;;;;;;8.57;3.50;;;;;;;;;;5027209;28;20282;-64
2023/05/27 09:39:14;;;;;;;6.70;3.47;;;;;;;;;;5025298;28;20196;-64
2023/05/27 09:41:41;;;;;;;9.40;3.33;;;;;;;;;;5029464;28;20196;-65
2023/05/27 09:44:09;;;;;;;6.57;2.70;;;;;;;;;;5033139;28;20204;-64
2023/05/27 09:46:37;;;;;;;5.75;3.15;;;;;;;;;;5031951;28;20287;-64
2023/05/27 09:49:04;;;;;;;7.93;3.08;;;;;;;;;;5031655;28;20206;-63
2023/05/27 09:51:32;;;;;;;7.68;3.30;;;;;;;;;;5031806;28;20215;-63
2023/05/27 09:54:00;;;;;;;6.38;2.92;;;;;;;;;;5028764;28;20258;-64
2023/05/27 09:56:30;;;;;;;7.20;3.25;;;;;;;;;;5031723;28;20208;-64
2023/05/27 09:58:57;;;;;;;8.25;3.63;;;;;;;;;;5031749;28;20204;-64
2023/05/27 10:01:28;;;;;;;8.40;3.40;;;;;;;;;;5031733;28;20298;-63
2023/05/27 10:03:56;;;;;;;6.82;3.40;;;;;;;;;;5031884;28;20227;-63
2023/05/27 10:06:24;;;;;;;8.35;3.10;;;;;;;;;;5031564;28;20214;-64
2023/05/27 10:08:52;;;;;;;6.97;3.03;;;;;;;;;;5031654;28;20306;-63
2023/05/27 10:11:21;;;;;;;7.65;3.28;;;;;;;;;;5032301;28;20255;-64
2023/05/27 10:13:50;;;;;;;7.55;2.97;;;;;;;;;;5031227;28;20204;-64
2023/05/27 10:16:21;;;;;;;9.13;3.45;;;;;;;;;;5031233;28;20299;-64
2023/05/27 10:18:52;;;;;;;7.90;3.17;;;;;;;;;;5031433;28;20234;-64
2023/05/27 10:21:20;;;;;;;6.00;2.85;;;;;;;;;;5031195;28;20243;-63
2023/05/27 10:23:54;;;;;;;7.10;3.25;;;;;;;;;;5030268;28;20208;-63
2023/05/27 10:26:22;;;;;;;6.40;3.03;;;;;;;;;;5027670;28;20203;-65
2023/05/27 10:28:50;;;;;;;7.78;3.45;;;;;;;;;;5031223;28;20208;-64
2023/05/27 10:31:18;;;;;;;8.02;3.45;;;;;;;;;;5031642;28;20211;-65
2023/05/27 10:33:46;;;;;;;6.32;3.03;;;;;;;;;;5031828;28;20231;-61
2023/05/27 10:36:14;;;;;;;6.80;3.30;;;;;;;;;;5033069;28;20227;-61
2023/05/27 10:38:42;;;;;;;7.60;3.25;;;;;;;;;;5030507;28;20287;-61
2023/05/27 10:41:10;;;;;;;6.68;3.17;;;;;;;;;;5031185;28;20208;-61
2023/05/27 10:43:37;;;;;;;6.80;3.00;;;;;;;;;;5031453;28;20208;-62
2023/05/27 10:46:06;;;;;;;5.90;2.85;;;;;;;;;;5030286;28;20440;-63
2023/05/27 10:48:34;;;;;;;16.08;5.30;;;;;;;;;;5031184;28;20239;-61
2023/05/27 10:51:01;;;;;;;7.30;2.95;;;;;;;;;;5031107;28;20306;-61
2023/05/27 10:53:29;;;;;;;9.10;3.35;;;;;;;;;;5031892;28;20208;-62
2023/05/27 10:55:58;;;;;;;6.57;3.25;;;;;;;;;;5031376;28;20232;-62
2023/05/27 10:58:25;;;;;;;7.72;3.28;;;;;;;;;;5028410;28;20319;-62
2023/05/27 11:00:53;;;;;;;4.88;2.90;;;;;;;;;;5024032;28;20200;-62
2023/05/27 11:03:23;;;;;;;6.55;3.25;;;;;;;;;;5024712;28;20200;-62
2023/05/27 11:06:05;;;;;;;10.00;4.05;;;;;;;;;;5024691;28;20197;-61
2023/05/27 11:08:33;;;;;;;5.93;3.08;;;;;;;;;;5025069;28;20204;-61
2023/05/27 11:11:01;;;;;;;8.13;3.40;;;;;;;;;;5025520;28;20216;-61
2023/05/27 11:13:35;;;;;;;8.40;3.33;;;;;;;;;;5030996;28;20204;-61
2023/05/27 11:16:02;;;;;;;6.97;3.33;;;;;;;;;;5031232;28;20235;-61
2023/05/27 11:18:40;;;;;;;7.25;3.42;;;;;;;;;;5028018;28;20208;-62
2023/05/27 11:21:08;;;;;;;9.07;3.63;;;;;;;;;;5024971;28;20215;-62
2023/05/27 11:23:40;;;;;;;5.78;3.10;;;;;;;;;;5032323;28;20215;-61
2023/05/27 11:26:15;;;;;;;6.65;3.25;;;;;;;;;;5034265;28;20271;-62
2023/05/27 11:28:49;;;;;;;10.45;3.65;;;;;;;;;;5032448;28;20294;-62
2023/05/27 11:31:16;;;;;;;7.43;3.58;;;;;;;;;;5031941;28;20208;-63
2023/05/27 11:33:45;;;;;;;7.15;3.38;;;;;;;;;;5036917;28;20200;-61
2023/05/27 11:36:13;;;;;;;7.55;3.22;;;;;;;;;;5033202;28;20227;-61
2023/05/27 11:38:47;;;;;;;7.20;3.25;;;;;;;;;;5033785;28;20230;-60
2023/05/27 11:41:14;;;;;;;8.80;3.42;;;;;;;;;;5034079;28;20208;-60
2023/05/27 11:43:48;;;;;;;7.53;3.55;;;;;;;;;;5034340;28;20226;-61
2023/05/27 11:46:15;;;;;;;10.43;3.75;;;;;;;;;;5033751;28;20204;-61
2023/05/27 11:48:43;;;;;;;7.18;3.38;;;;;;;;;;5034612;28;20203;-60
2023/05/27 11:51:11;;;;;;;7.47;3.65;;;;;;;;;;5033593;28;20204;-60
2023/05/27 11:53:40;;;;;;;9.55;3.65;;;;;;;;;;5030861;28;20212;-61
2023/05/27 11:56:08;;;;;;;8.55;3.90;;;;;;;;;;5033682;28;20281;-61
2023/05/27 11:58:36;;;;;;;8.55;3.58;;;;;;;;;;5033773;28;20212;-62
2023/05/27 12:01:03;;;;;;;8.63;3.70;;;;;;;;;;5032754;28;20212;-61
2023/05/27 12:03:31;;;;;;;8.07;3.35;;;;;;;;;;5033367;28;20208;-61
2023/05/27 12:05:58;;;;;;;6.05;3.38;;;;;;;;;;5032166;28;20192;-61
2023/05/27 12:08:26;;;;;;;8.77;3.80;;;;;;;;;;5034738;28;20216;-61
2023/05/27 12:10:54;;;;;;;7.88;3.25;;;;;;;;;;5033904;28;20212;-62
2023/05/27 12:13:22;;;;;;;5.93;3.20;;;;;;;;;;5033586;28;20274;-63
2023/05/27 12:15:50;;;;;;;7.90;3.10;;;;;;;;;;5033110;28;20227;-61
2023/05/27 12:18:17;;;;;;;7.18;3.38;;;;;;;;;;5033611;28;20208;-62
2023/05/27 12:20:45;;;;;;;7.53;3.28;;;;;;;;;;5032289;28;20196;-62
2023/05/27 12:23:12;;;;;;;7.88;3.30;;;;;;;;;;5032545;28;20232;-62
2023/05/27 12:25:40;;;;;;;5.95;3.33;;;;;;;;;;5034154;28;20212;-61
2023/05/27 12:28:08;;;;;;;8.30;3.70;;;;;;;;;;5032845;28;20204;-61
2023/05/27 12:30:36;;;;;;;6.72;3.50;;;;;;;;;;5032902;28;20211;-61
2023/05/27 12:33:03;;;;;;;7.10;3.20;;;;;;;;;;5032608;28;20289;-61
2023/05/27 12:35:30;;;;;;;9.57;3.72;;;;;;;;;;5032994;28;20220;-62
2023/05/27 12:37:58;;;;;;;7.50;3.58;;;;;;;;;;5032755;28;20208;-61
2023/05/27 12:40:25;;;;;;;8.15;3.63;;;;;;;;;;5032565;28;20269;-63
2023/05/27 12:42:53;;;;;;;5.35;3.63;;;;;;;;;;5031659;28;20196;-62
2023/05/27 12:45:21;;;;;;;6.60;3.58;;;;;;;;;;5029811;28;20207;-61
2023/05/27 12:47:49;;;;;;;7.90;3.60;;;;;;;;;;5033150;28;20204;-62
2023/05/27 12:50:17;;;;;;;6.60;3.72;;;;;;;;;;5027649;28;20273;-62
2023/05/27 12:52:46;;;;;;;6.88;3.45;;;;;;;;;;5031124;28;20258;-64
2023/05/27 12:55:13;;;;;;;7.07;3.47;;;;;;;;;;5027130;28;20214;-62
2023/05/27 12:57:40;;;;;;;5.55;3.60;;;;;;;;;;5033118;28;20224;-63
2023/05/27 13:00:11;;;;;;;6.78;3.80;;;;;;;;;;5031491;28;20254;-63
2023/05/27 13:02:38;;;;;;;4.82;3.65;;;;;;;;;;5030466;28;20212;-62
2023/05/27 13:05:06;;;;;;;9.15;3.90;;;;;;;;;;5032221;28;20279;-64
2023/05/27 13:07:33;;;;;;;5.68;3.33;;;;;;;;;;5028677;28;20291;-63
2023/05/27 13:10:02;;;;;;;5.18;3.90;;;;;;;;;;5029907;28;20204;-64
2023/05/27 13:12:29;;;;;;;6.65;3.88;;;;;;;;;;5029537;28;20204;-63
2023/05/27 13:14:57;;;;;;;4.85;3.50;;;;;;;;;;5031647;28;20216;-62
2023/05/27 13:17:25;;;;;;;8.15;3.80;;;;;;;;;;5029355;28;20228;-63
2023/05/27 13:19:52;;;;;;;5.97;3.63;;;;;;;;;;5031463;28;20246;-62
2023/05/27 13:22:19;;;;;;;7.07;3.85;;;;;;;;;;5031619;28;20227;-62
2023/05/27 13:24:47;;;;;;;7.63;3.63;;;;;;;;;;5027522;28;20204;-61
2023/05/27 13:27:14;;;;;;;6.75;3.75;;;;;;;;;;5031829;28;20200;-61
2023/05/27 13:29:41;;;;;;;5.82;3.90;;;;;;;;;;5031988;28;20208;-61
2023/05/27 13:32:08;;;;;;;6.05;3.78;;;;;;;;;;5034158;28;20235;-61
2023/05/27 13:34:37;;;;;;;6.22;3.38;;;;;;;;;;5031062;28;20207;-62
2023/05/27 13:37:04;;;;;;;6.57;3.55;;;;;;;;;;5030155;28;20224;-62
2023/05/27 13:39:32;;;;;;;6.28;3.60;;;;;;;;;;5031469;28;20215;-61
2023/05/27 13:41:59;;;;;;;5.93;3.90;;;;;;;;;;5032029;28;20223;-61
2023/05/27 13:44:27;;;;;;;5.43;3.60;;;;;;;;;;5031043;28;20212;-61
2023/05/27 13:46:54;;;;;;;7.63;3.50;;;;;;;;;;5031634;28;20216;-62
2023/05/27 13:49:22;;;;;;;7.35;4.10;;;;;;;;;;5031502;28;20204;-63
2023/05/27 13:51:50;;;;;;;6.07;3.45;;;;;;;;;;5030819;28;20212;-62
2023/05/27 13:54:17;;;;;;;5.20;3.70;;;;;;;;;;5030707;28;20204;-62
2023/05/27 13:56:45;;;;;;;7.75;3.85;;;;;;;;;;5030682;28;20227;-61
2023/05/27 13:59:12;;;;;;;7.20;4.03;;;;;;;;;;5030687;28;20215;-62
2023/05/27 14:01:41;;;;;;;6.50;3.80;;;;;;;;;;5030920;28;20204;-61
2023/05/27 14:04:08;;;;;;;6.03;3.58;;;;;;;;;;5030783;28;20211;-61
2023/05/27 14:06:36;;;;;;;6.75;3.85;;;;;;;;;;5031228;28;20203;-61
2023/05/27 14:09:05;;;;;;;7.10;4.15;;;;;;;;;;5030357;28;20204;-62
2023/05/27 14:11:32;;;;;;;6.93;4.20;;;;;;;;;;5031297;28;20208;-61
2023/05/27 14:13:59;;;;;;;7.95;3.92;;;;;;;;;;5031151;28;20204;-62
2023/05/27 14:16:26;;;;;;;7.97;3.88;;;;;;;;;;5028701;28;20251;-62
2023/05/27 14:18:53;;;;;;;7.47;4.20;;;;;;;;;;5029206;28;20236;-63
2023/05/27 14:21:21;;;;;;;7.25;3.97;;;;;;;;;;5031175;28;20240;-62
2023/05/27 14:23:48;;;;;;;7.25;3.72;;;;;;;;;;5031260;28;20196;-63
2023/05/27 14:26:17;;;;;;;7.72;4.25;;;;;;;;;;5039098;28;20218;-63
2023/05/27 14:28:44;;;;;;;5.57;3.90;;;;;;;;;;5031576;28;20231;-63
2023/05/27 14:31:11;;;;;;;5.90;3.90;;;;;;;;;;5029613;28;20216;-62
2023/05/27 14:33:38;;;;;;;8.40;4.13;;;;;;;;;;5028913;28;20204;-61
2023/05/27 14:36:07;;;;;;;9.23;4.35;;;;;;;;;;5028854;28;20224;-63
2023/05/27 14:38:34;;;;;;;6.85;4.22;;;;;;;;;;5031445;28;20216;-63
2023/05/27 14:41:01;;;;;;;7.57;4.20;;;;;;;;;;5033424;28;20295;-64
2023/05/27 14:43:30;;;;;;;6.10;3.70;;;;;;;;;;5030783;28;20200;-64
2023/05/27 14:45:57;;;;;;;5.97;3.90;;;;;;;;;;5030332;28;20211;-64
2023/05/27 14:48:24;;;;;;;7.28;3.75;;;;;;;;;;5030231;28;20204;-63